createdAt,value
2022-09-26T00:00:54.128Z,14.97
2022-09-26T00:01:54.212Z,14.91
2022-09-26T00:02:54.188Z,15.03
2022-09-26T00:03:54.158Z,14.85
2022-09-26T00:04:54.194Z,14.87
2022-09-26T00:05:54.225Z,14.98
2022-09-26T00:06:54.267Z,14.94
2022-09-26T00:07:54.300Z,14.97
2022-09-26T00:08:54.331Z,14.91
2022-09-26T00:09:54.365Z,14.97
2022-09-26T00:10:54.394Z,14.93
2022-09-26T00:11:54.433Z,14.94
2022-09-26T00:12:54.464Z,14.90
2022-09-26T00:13:54.493Z,14.91
2022-09-26T00:14:54.530Z,14.94
2022-09-26T00:15:54.566Z,14.90
2022-09-26T00:16:54.682Z,14.97
2022-09-26T00:17:54.627Z,14.87
2022-09-26T00:18:54.664Z,14.91
2022-09-26T00:19:54.697Z,14.86
2022-09-26T00:20:54.734Z,14.90
2022-09-26T00:21:54.763Z,14.85
2022-09-26T00:22:54.798Z,14.91
2022-09-26T00:23:54.834Z,14.83
2022-09-26T00:24:54.867Z,14.85
2022-09-26T00:25:54.897Z,14.83
2022-09-26T00:26:54.933Z,14.75
2022-09-26T00:27:54.967Z,14.86
2022-09-26T00:28:55.001Z,14.80
2022-09-26T00:29:55.037Z,14.86
2022-09-26T00:30:55.168Z,14.75
2022-09-26T00:31:55.103Z,14.82
2022-09-26T00:32:55.221Z,14.72
2022-09-26T00:33:55.169Z,14.80
2022-09-26T00:34:55.205Z,14.78
2022-09-26T00:35:55.233Z,14.74
2022-09-26T00:36:55.269Z,14.79
2022-09-26T00:37:55.303Z,14.71
2022-09-26T00:38:55.335Z,14.78
2022-09-26T00:39:55.368Z,14.78
2022-09-26T00:40:55.483Z,14.66
2022-09-26T00:41:55.435Z,14.80
2022-09-26T00:42:55.472Z,14.80
2022-09-26T00:43:55.503Z,14.80
2022-09-26T00:44:55.538Z,14.80
2022-09-26T00:45:55.620Z,14.72
2022-09-26T00:46:55.611Z,14.80
2022-09-26T00:47:55.641Z,14.71
2022-09-26T00:48:55.672Z,14.78
2022-09-26T00:49:55.702Z,14.74
2022-09-26T00:50:55.740Z,14.71
2022-09-26T00:51:55.775Z,14.67
2022-09-26T00:52:55.804Z,14.71
2022-09-26T00:53:55.837Z,14.74
2022-09-26T00:54:55.873Z,14.74
2022-09-26T00:55:55.907Z,14.71
2022-09-26T00:56:55.945Z,14.67
2022-09-26T00:57:55.971Z,14.72
2022-09-26T00:58:56.010Z,14.74
2022-09-26T00:59:56.039Z,14.69
2022-09-26T01:00:56.177Z,14.71
2022-09-26T01:01:56.207Z,14.60
2022-09-26T01:02:56.142Z,14.59
2022-09-26T01:03:56.171Z,14.63
2022-09-26T01:04:56.212Z,14.61
2022-09-26T01:05:56.239Z,14.60
2022-09-26T01:06:56.274Z,14.64
2022-09-26T01:07:56.306Z,14.61
2022-09-26T01:08:56.342Z,14.69
2022-09-26T01:09:56.373Z,14.54
2022-09-26T01:10:56.409Z,14.57
2022-09-26T01:11:56.440Z,14.59
2022-09-26T01:12:56.476Z,14.61
2022-09-26T01:13:56.518Z,14.56
2022-09-26T01:14:56.542Z,14.53
2022-09-26T01:15:56.575Z,14.60
2022-09-26T01:16:56.672Z,14.53
2022-09-26T01:17:56.640Z,14.59
2022-09-26T01:18:56.676Z,14.59
2022-09-26T01:19:56.708Z,14.53
2022-09-26T01:20:56.746Z,14.61
2022-09-26T01:21:56.776Z,14.57
2022-09-26T01:22:56.809Z,14.60
2022-09-26T01:23:56.844Z,14.45
2022-09-26T01:24:56.877Z,14.52
2022-09-26T01:25:56.910Z,14.45
2022-09-26T01:26:56.943Z,14.49
2022-09-26T01:27:56.980Z,14.45
2022-09-26T01:28:57.010Z,14.48
2022-09-26T01:29:57.041Z,14.44
2022-09-26T01:30:57.117Z,14.49
2022-09-26T01:31:57.110Z,14.46
2022-09-26T01:32:57.146Z,14.41
2022-09-26T01:33:57.177Z,14.45
2022-09-26T01:34:57.210Z,14.45
2022-09-26T01:35:57.243Z,14.48
2022-09-26T01:36:57.280Z,14.45
2022-09-26T01:37:57.309Z,14.49
2022-09-26T01:38:57.344Z,14.41
2022-09-26T01:39:57.377Z,14.45
2022-09-26T01:40:57.514Z,14.45
2022-09-26T01:41:57.535Z,14.45
2022-09-26T01:42:57.499Z,14.45
2022-09-26T01:43:57.523Z,14.45
2022-09-26T01:44:57.559Z,14.38
2022-09-26T01:45:57.628Z,14.38
2022-09-26T01:46:57.625Z,14.41
2022-09-26T01:47:57.660Z,14.44
2022-09-26T01:48:57.691Z,14.34
2022-09-26T01:49:57.723Z,14.36
2022-09-26T01:50:57.760Z,14.39
2022-09-26T01:51:57.790Z,14.35
2022-09-26T01:52:57.827Z,14.34
2022-09-26T01:53:57.856Z,14.36
2022-09-26T01:54:57.892Z,14.34
2022-09-26T01:55:57.926Z,14.31
2022-09-26T01:56:57.962Z,14.35
2022-09-26T01:57:57.992Z,14.35
2022-09-26T01:58:58.024Z,14.38
2022-09-26T01:59:58.057Z,14.39
2022-09-26T02:00:58.115Z,14.35
2022-09-26T02:01:58.181Z,14.34
2022-09-26T02:02:58.158Z,14.31
2022-09-26T02:03:58.194Z,14.36
2022-09-26T02:04:58.232Z,14.31
2022-09-26T02:05:58.257Z,14.30
2022-09-26T02:06:58.290Z,14.30
2022-09-26T02:07:58.329Z,14.27
2022-09-26T02:08:58.366Z,14.34
2022-09-26T02:09:58.391Z,14.34
2022-09-26T02:10:58.423Z,14.35
2022-09-26T02:11:58.463Z,14.36
2022-09-26T02:12:58.490Z,14.31
2022-09-26T02:13:58.522Z,14.27
2022-09-26T02:14:58.558Z,14.34
2022-09-26T02:15:58.590Z,14.30
2022-09-26T02:16:58.717Z,14.30
2022-09-26T02:17:58.656Z,14.31
2022-09-26T02:18:58.699Z,14.29
2022-09-26T02:19:58.723Z,14.27
2022-09-26T02:20:58.774Z,14.30
2022-09-26T02:21:58.795Z,14.27
2022-09-26T02:22:58.825Z,14.27
2022-09-26T02:23:58.856Z,14.24
2022-09-26T02:24:58.893Z,14.24
2022-09-26T02:25:58.920Z,14.26
2022-09-26T02:26:58.956Z,14.24
2022-09-26T02:27:58.989Z,14.26
2022-09-26T02:28:59.024Z,14.19
2022-09-26T02:29:59.055Z,14.20
2022-09-26T02:30:59.089Z,14.23
2022-09-26T02:31:59.142Z,14.19
2022-09-26T02:32:59.159Z,14.23
2022-09-26T02:33:59.189Z,14.26
2022-09-26T02:34:59.237Z,14.23
2022-09-26T02:35:59.259Z,14.20
2022-09-26T02:36:59.289Z,14.17
2022-09-26T02:37:59.321Z,14.09
2022-09-26T02:38:59.356Z,14.21
2022-09-26T02:39:59.388Z,14.24
2022-09-26T02:40:59.660Z,14.19
2022-09-26T02:41:59.453Z,14.23
2022-09-26T02:42:59.488Z,14.13
2022-09-26T02:43:59.527Z,14.17
2022-09-26T02:44:59.555Z,14.17
2022-09-26T02:45:59.596Z,14.23
2022-09-26T02:46:59.621Z,14.11
2022-09-26T02:47:59.654Z,14.09
2022-09-26T02:48:59.688Z,14.09
2022-09-26T02:49:59.720Z,14.08
2022-09-26T02:50:59.758Z,14.11
2022-09-26T02:51:59.787Z,14.16
2022-09-26T02:52:59.819Z,14.06
2022-09-26T02:53:59.852Z,14.11
2022-09-26T02:54:59.893Z,14.12
2022-09-26T02:55:59.932Z,14.08
2022-09-26T02:56:59.952Z,14.13
2022-09-26T02:57:59.986Z,14.05
2022-09-26T02:59:00.023Z,14.11
2022-09-26T03:00:00.051Z,14.06
2022-09-26T03:01:00.153Z,14.11
2022-09-26T03:02:00.122Z,14.04
2022-09-26T03:03:00.150Z,14.13
2022-09-26T03:04:00.184Z,13.99
2022-09-26T03:05:00.342Z,14.11
2022-09-26T03:06:00.250Z,14.11
2022-09-26T03:07:00.287Z,14.09
2022-09-26T03:08:00.316Z,14.04
2022-09-26T03:09:00.350Z,14.02
2022-09-26T03:10:00.383Z,13.96
2022-09-26T03:11:00.415Z,13.96
2022-09-26T03:12:00.449Z,14.02
2022-09-26T03:13:00.487Z,14.04
2022-09-26T03:14:00.515Z,13.94
2022-09-26T03:15:00.548Z,14.05
2022-09-26T03:16:00.633Z,13.94
2022-09-26T03:17:00.627Z,13.96
2022-09-26T03:18:00.650Z,14.02
2022-09-26T03:19:00.687Z,13.94
2022-09-26T03:20:00.714Z,13.94
2022-09-26T03:21:00.749Z,13.98
2022-09-26T03:22:00.780Z,13.91
2022-09-26T03:23:00.814Z,13.96
2022-09-26T03:24:00.849Z,14.01
2022-09-26T03:25:00.898Z,13.99
2022-09-26T03:26:00.958Z,13.98
2022-09-26T03:27:00.945Z,13.93
2022-09-26T03:28:00.980Z,13.99
2022-09-26T03:29:01.018Z,13.99
2022-09-26T03:30:01.044Z,13.96
2022-09-26T03:31:01.076Z,13.93
2022-09-26T03:32:01.288Z,13.98
2022-09-26T03:33:01.144Z,13.90
2022-09-26T03:34:01.184Z,13.91
2022-09-26T03:35:01.210Z,13.94
2022-09-26T03:36:01.243Z,13.88
2022-09-26T03:37:01.276Z,13.86
2022-09-26T03:38:01.310Z,13.91
2022-09-26T03:39:01.341Z,13.88
2022-09-26T03:40:01.377Z,13.87
2022-09-26T03:41:01.455Z,13.91
2022-09-26T03:42:01.440Z,13.90
2022-09-26T03:43:01.473Z,13.87
2022-09-26T03:44:01.509Z,13.88
2022-09-26T03:45:01.561Z,13.86
2022-09-26T03:46:01.623Z,13.81
2022-09-26T03:47:01.610Z,13.80
2022-09-26T03:48:01.641Z,13.79
2022-09-26T03:49:01.672Z,13.79
2022-09-26T03:50:01.708Z,13.81
2022-09-26T03:51:01.736Z,13.76
2022-09-26T03:52:01.775Z,13.79
2022-09-26T03:53:01.804Z,13.75
2022-09-26T03:54:01.836Z,13.79
2022-09-26T03:55:01.877Z,13.73
2022-09-26T03:56:01.903Z,13.76
2022-09-26T03:57:01.937Z,13.72
2022-09-26T03:58:01.972Z,13.76
2022-09-26T03:59:02.001Z,13.76
2022-09-26T04:00:02.036Z,13.71
2022-09-26T04:01:02.269Z,13.76
2022-09-26T04:02:02.187Z,13.73
2022-09-26T04:03:02.132Z,13.76
2022-09-26T04:04:02.169Z,13.73
2022-09-26T04:05:02.207Z,13.72
2022-09-26T04:06:02.237Z,13.75
2022-09-26T04:07:02.264Z,13.76
2022-09-26T04:08:02.300Z,13.75
2022-09-26T04:09:02.332Z,13.73
2022-09-26T04:10:02.371Z,13.73
2022-09-26T04:11:02.399Z,13.65
2022-09-26T04:12:02.430Z,13.69
2022-09-26T04:13:02.466Z,13.65
2022-09-26T04:14:02.496Z,13.65
2022-09-26T04:15:02.530Z,13.66
2022-09-26T04:16:02.642Z,13.62
2022-09-26T04:17:02.599Z,13.61
2022-09-26T04:18:02.630Z,13.65
2022-09-26T04:19:02.668Z,13.63
2022-09-26T04:20:02.694Z,13.63
2022-09-26T04:21:04.797Z,13.62
2022-09-26T04:22:02.770Z,13.59
2022-09-26T04:23:02.796Z,13.55
2022-09-26T04:24:02.825Z,13.65
2022-09-26T04:25:02.858Z,13.57
2022-09-26T04:26:02.895Z,13.51
2022-09-26T04:27:02.930Z,13.55
2022-09-26T04:28:02.958Z,13.55
2022-09-26T04:29:02.990Z,13.61
2022-09-26T04:30:03.022Z,13.55
2022-09-26T04:31:03.054Z,13.53
2022-09-26T04:32:03.140Z,13.65
2022-09-26T04:33:03.123Z,13.51
2022-09-26T04:34:03.153Z,13.63
2022-09-26T04:35:03.204Z,13.65
2022-09-26T04:36:03.223Z,13.53
2022-09-26T04:37:03.257Z,13.53
2022-09-26T04:38:03.285Z,13.57
2022-09-26T04:39:03.318Z,13.50
2022-09-26T04:40:03.359Z,13.57
2022-09-26T04:41:03.420Z,13.61
2022-09-26T04:42:03.417Z,13.55
2022-09-26T04:43:03.450Z,13.53
2022-09-26T04:44:03.485Z,13.53
2022-09-26T04:45:03.517Z,13.57
2022-09-26T04:46:03.664Z,13.53
2022-09-26T04:47:03.585Z,13.53
2022-09-26T04:48:03.616Z,13.53
2022-09-26T04:49:03.646Z,13.57
2022-09-26T04:50:03.680Z,13.57
2022-09-26T04:51:03.714Z,13.50
2022-09-26T04:52:03.745Z,13.50
2022-09-26T04:53:03.780Z,13.50
2022-09-26T04:54:03.811Z,13.55
2022-09-26T04:55:03.844Z,13.50
2022-09-26T04:56:03.876Z,13.55
2022-09-26T04:57:03.911Z,13.46
2022-09-26T04:58:03.941Z,13.46
2022-09-26T04:59:03.975Z,13.54
2022-09-26T05:00:04.011Z,13.47
2022-09-26T05:01:04.116Z,13.46
2022-09-26T05:02:04.126Z,13.46
2022-09-26T05:03:04.108Z,13.48
2022-09-26T05:04:04.171Z,13.46
2022-09-26T05:05:04.175Z,13.48
2022-09-26T05:06:04.206Z,13.47
2022-09-26T05:07:04.236Z,13.46
2022-09-26T05:08:04.270Z,13.39
2022-09-26T05:09:04.303Z,13.46
2022-09-26T05:10:04.335Z,13.41
2022-09-26T05:11:04.368Z,13.46
2022-09-26T05:12:04.403Z,13.43
2022-09-26T05:13:04.435Z,13.43
2022-09-26T05:14:04.465Z,13.38
2022-09-26T05:15:04.498Z,13.44
2022-09-26T05:16:04.553Z,13.44
2022-09-26T05:17:04.579Z,13.39
2022-09-26T05:18:04.597Z,13.36
2022-09-26T05:19:04.630Z,13.35
2022-09-26T05:20:04.664Z,13.35
2022-09-26T05:21:04.698Z,13.38
2022-09-26T05:22:04.729Z,13.25
2022-09-26T05:23:04.760Z,13.35
2022-09-26T05:24:04.802Z,13.19
2022-09-26T05:25:04.827Z,13.25
2022-09-26T05:26:04.859Z,13.24
2022-09-26T05:27:04.901Z,13.21
2022-09-26T05:28:04.924Z,13.22
2022-09-26T05:29:08.526Z,13.28
2022-09-26T05:30:04.989Z,13.17
2022-09-26T05:31:05.077Z,13.27
2022-09-26T05:32:05.178Z,13.28
2022-09-26T05:33:05.103Z,13.16
2022-09-26T05:34:05.119Z,13.21
2022-09-26T05:35:05.155Z,13.16
2022-09-26T05:36:05.186Z,13.12
2022-09-26T05:37:05.218Z,13.13
2022-09-26T05:38:05.250Z,13.14
2022-09-26T05:39:05.287Z,13.21
2022-09-26T05:40:05.315Z,13.14
2022-09-26T05:41:05.437Z,13.22
2022-09-26T05:42:05.381Z,13.14
2022-09-26T05:43:05.413Z,13.17
2022-09-26T05:44:05.447Z,13.24
2022-09-26T05:45:05.478Z,13.16
2022-09-26T05:46:05.512Z,13.04
2022-09-26T05:47:05.580Z,13.12
2022-09-26T05:48:05.576Z,13.06
2022-09-26T05:49:05.649Z,13.04
2022-09-26T05:50:05.641Z,13.01
2022-09-26T05:51:05.673Z,13.17
2022-09-26T05:52:05.707Z,13.16
2022-09-26T05:53:05.739Z,13.14
2022-09-26T05:54:05.771Z,13.04
2022-09-26T05:55:05.807Z,13.01
2022-09-26T05:56:05.840Z,13.03
2022-09-26T05:57:05.870Z,13.07
2022-09-26T05:58:05.904Z,13.03
2022-09-26T05:59:06.001Z,13.04
2022-09-26T06:00:05.976Z,13.01
2022-09-26T06:01:06.035Z,13.09
2022-09-26T06:02:06.112Z,13.16
2022-09-26T06:03:06.063Z,13.06
2022-09-26T06:04:06.097Z,13.06
2022-09-26T06:05:06.129Z,13.09
2022-09-26T06:06:06.165Z,12.99
2022-09-26T06:07:06.194Z,12.99
2022-09-26T06:08:06.228Z,12.98
2022-09-26T06:09:06.413Z,12.92
2022-09-26T06:10:06.294Z,12.99
2022-09-26T06:11:06.324Z,12.98
2022-09-26T06:12:06.361Z,12.94
2022-09-26T06:13:06.391Z,12.88
2022-09-26T06:14:06.430Z,12.96
2022-09-26T06:15:06.459Z,12.96
2022-09-26T06:16:06.581Z,12.94
2022-09-26T06:17:06.520Z,12.92
2022-09-26T06:18:06.553Z,12.96
2022-09-26T06:19:06.690Z,12.96
2022-09-26T06:20:06.619Z,13.04
2022-09-26T06:21:06.657Z,12.95
2022-09-26T06:22:06.689Z,13.04
2022-09-26T06:23:06.714Z,13.09
2022-09-26T06:24:06.750Z,13.07
2022-09-26T06:25:06.784Z,12.99
2022-09-26T06:26:06.812Z,13.04
2022-09-26T06:27:06.843Z,12.98
2022-09-26T06:28:06.880Z,12.98
2022-09-26T06:29:06.998Z,13.01
2022-09-26T06:30:06.958Z,13.01
2022-09-26T06:31:07.059Z,13.06
2022-09-26T06:32:07.116Z,13.07
2022-09-26T06:33:07.041Z,13.10
2022-09-26T06:34:07.078Z,13.12
2022-09-26T06:35:07.107Z,13.10
2022-09-26T06:36:07.142Z,13.13
2022-09-26T06:37:07.171Z,13.24
2022-09-26T06:38:07.217Z,13.25
2022-09-26T06:39:07.246Z,13.22
2022-09-26T06:40:07.268Z,13.31
2022-09-26T06:41:07.577Z,13.28
2022-09-26T06:42:07.424Z,13.32
2022-09-26T06:43:07.366Z,13.38
2022-09-26T06:44:07.404Z,13.29
2022-09-26T06:45:07.431Z,13.39
2022-09-26T06:46:07.467Z,13.39
2022-09-26T06:47:07.555Z,13.36
2022-09-26T06:48:07.547Z,13.39
2022-09-26T06:49:07.572Z,13.50
2022-09-26T06:50:07.597Z,13.53
2022-09-26T06:51:07.626Z,13.47
2022-09-26T06:52:07.663Z,13.43
2022-09-26T06:53:12.709Z,13.47
2022-09-26T06:54:07.725Z,13.48
2022-09-26T06:55:07.763Z,13.53
2022-09-26T06:56:07.792Z,13.51
2022-09-26T06:57:11.648Z,13.59
2022-09-26T06:58:07.856Z,13.53
2022-09-26T06:59:07.889Z,13.54
2022-09-26T07:00:07.924Z,13.66
2022-09-26T07:01:08.093Z,13.65
2022-09-26T07:02:08.217Z,13.63
2022-09-26T07:03:08.022Z,13.63
2022-09-26T07:04:08.052Z,13.73
2022-09-26T07:05:08.085Z,13.65
2022-09-26T07:06:08.118Z,13.65
2022-09-26T07:07:08.152Z,13.69
2022-09-26T07:08:08.183Z,13.62
2022-09-26T07:09:14.553Z,13.63
2022-09-26T07:10:08.248Z,13.63
2022-09-26T07:11:31.110Z,13.63
2022-09-26T07:12:16.070Z,13.68
2022-09-26T07:13:08.408Z,13.63
2022-09-26T07:14:08.378Z,13.63
2022-09-26T07:15:08.415Z,13.63
2022-09-26T07:16:08.485Z,13.66
2022-09-26T07:17:08.491Z,13.68
2022-09-26T07:18:08.510Z,13.71
2022-09-26T07:19:08.563Z,13.68
2022-09-26T07:20:08.579Z,13.71
2022-09-26T07:21:08.616Z,13.66
2022-09-26T07:22:08.641Z,13.69
2022-09-26T07:23:08.702Z,13.75
2022-09-26T07:24:08.711Z,13.81
2022-09-26T07:25:08.743Z,13.86
2022-09-26T07:26:08.781Z,13.81
2022-09-26T07:27:08.807Z,13.76
2022-09-26T07:28:08.838Z,13.83
2022-09-26T07:29:08.945Z,13.90
2022-09-26T07:30:08.907Z,13.87
2022-09-26T07:31:08.999Z,13.99
2022-09-26T07:32:08.972Z,13.94
2022-09-26T07:33:09.004Z,14.01
2022-09-26T07:34:09.078Z,13.96
2022-09-26T07:35:09.069Z,14.11
2022-09-26T07:36:09.103Z,14.12
2022-09-26T07:37:09.135Z,14.16
2022-09-26T07:38:09.165Z,14.23
2022-09-26T07:39:09.238Z,14.23
2022-09-26T07:40:09.232Z,14.19
2022-09-26T07:41:09.267Z,14.26
2022-09-26T07:42:09.301Z,14.24
2022-09-26T07:43:19.546Z,14.29
2022-09-26T07:45:24.748Z,14.23
2022-09-26T07:46:09.529Z,14.27
2022-09-26T07:47:09.464Z,14.30
2022-09-26T07:48:09.496Z,14.29
2022-09-26T07:49:09.534Z,14.29
2022-09-26T07:50:09.560Z,14.35
2022-09-26T07:51:09.597Z,14.31
2022-09-26T07:52:09.641Z,14.34
2022-09-26T07:53:09.663Z,14.42
2022-09-26T07:54:09.783Z,14.52
2022-09-26T07:55:09.735Z,14.48
2022-09-26T07:56:09.762Z,14.49
2022-09-26T07:57:09.801Z,14.56
2022-09-26T07:58:09.827Z,14.53
2022-09-26T07:59:09.862Z,14.61
2022-09-26T08:00:09.896Z,14.63
2022-09-26T08:01:09.953Z,14.64
2022-09-26T08:02:10.168Z,14.69
2022-09-26T08:03:10.054Z,14.83
2022-09-26T08:04:10.060Z,14.71
2022-09-26T08:05:10.061Z,14.83
2022-09-26T08:06:10.092Z,14.87
2022-09-26T08:07:10.126Z,14.75
2022-09-26T08:08:10.162Z,14.83
2022-09-26T08:09:10.240Z,14.82
2022-09-26T08:10:10.225Z,14.79
2022-09-26T08:11:10.261Z,14.90
2022-09-26T08:12:10.293Z,14.90
2022-09-26T08:13:10.329Z,14.95
2022-09-26T08:14:10.363Z,14.98
2022-09-26T08:15:10.396Z,14.91
2022-09-26T08:16:10.488Z,14.97
2022-09-26T08:17:14.090Z,14.95
2022-09-26T08:18:10.492Z,15.05
2022-09-26T08:19:10.528Z,15.04
2022-09-26T08:20:10.559Z,15.00
2022-09-26T08:21:10.594Z,15.16
2022-09-26T08:22:10.647Z,15.12
2022-09-26T08:23:10.665Z,15.07
2022-09-26T08:24:10.697Z,15.19
2022-09-26T08:25:10.730Z,15.16
2022-09-26T08:26:10.771Z,15.22
2022-09-26T08:27:10.794Z,15.23
2022-09-26T08:28:10.828Z,15.27
2022-09-26T08:29:10.861Z,15.27
2022-09-26T08:30:10.893Z,15.30
2022-09-26T08:31:10.988Z,15.34
2022-09-26T08:32:10.963Z,15.46
2022-09-26T08:33:10.999Z,15.41
2022-09-26T08:34:11.027Z,15.46
2022-09-26T08:35:11.064Z,15.64
2022-09-26T08:36:11.101Z,15.60
2022-09-26T08:37:11.140Z,15.59
2022-09-26T08:38:11.166Z,15.64
2022-09-26T08:39:11.200Z,15.77
2022-09-26T08:40:11.295Z,15.88
2022-09-26T08:41:11.265Z,15.96
2022-09-26T08:42:11.298Z,16.01
2022-09-26T08:43:11.341Z,15.96
2022-09-26T08:44:11.371Z,16.06
2022-09-26T08:45:11.401Z,16.03
2022-09-26T08:46:11.497Z,16.14
2022-09-26T08:47:11.467Z,16.06
2022-09-26T08:48:11.501Z,16.10
2022-09-26T08:49:11.544Z,16.13
2022-09-26T08:50:11.579Z,16.16
2022-09-26T08:51:11.602Z,16.22
2022-09-26T08:52:11.635Z,16.23
2022-09-26T08:53:11.672Z,16.48
2022-09-26T08:54:11.755Z,16.36
2022-09-26T08:55:11.737Z,16.36
2022-09-26T08:56:11.771Z,16.40
2022-09-26T08:57:11.813Z,16.40
2022-09-26T08:58:11.839Z,16.44
2022-09-26T08:59:11.874Z,16.50
2022-09-26T09:00:11.908Z,16.57
2022-09-26T09:01:11.974Z,16.62
2022-09-26T09:02:12.077Z,16.67
2022-09-26T09:03:12.042Z,16.70
2022-09-26T09:04:12.059Z,16.87
2022-09-26T09:05:12.083Z,16.87
2022-09-26T09:06:12.110Z,17.00
2022-09-26T09:07:12.146Z,16.92
2022-09-26T09:08:12.181Z,16.91
2022-09-26T09:09:12.221Z,16.92
2022-09-26T09:10:12.249Z,16.92
2022-09-26T09:11:12.284Z,16.91
2022-09-26T09:12:12.336Z,16.85
2022-09-26T09:13:12.352Z,16.90
2022-09-26T09:14:12.473Z,16.90
2022-09-26T09:15:25.157Z,16.90
2022-09-26T09:16:12.510Z,16.98
2022-09-26T09:17:12.489Z,16.99
2022-09-26T09:18:13.824Z,17.00
2022-09-26T09:19:12.558Z,17.06
2022-09-26T09:20:12.592Z,17.07
2022-09-26T09:21:12.630Z,17.21
2022-09-26T09:22:12.660Z,17.30
2022-09-26T09:23:12.697Z,17.46
2022-09-26T09:24:12.769Z,17.47
2022-09-26T09:25:12.766Z,17.63
2022-09-26T09:28:12.869Z,17.86
2022-09-26T09:29:18.693Z,17.81
2022-09-26T09:30:17.276Z,17.94
2022-09-26T09:31:13.000Z,17.98
2022-09-26T09:32:13.009Z,18.11
2022-09-26T09:33:13.049Z,18.05
2022-09-26T09:34:13.098Z,18.09
2022-09-26T09:35:13.113Z,18.16
2022-09-26T09:36:13.153Z,18.17
2022-09-26T09:37:13.212Z,18.10
2022-09-26T09:38:13.215Z,17.94
2022-09-26T09:39:13.253Z,17.95
2022-09-26T09:40:13.304Z,17.84
2022-09-26T09:41:13.323Z,17.68
2022-09-26T09:42:13.358Z,17.68
2022-09-26T09:43:13.391Z,17.57
2022-09-26T09:44:13.553Z,17.49
2022-09-26T09:45:13.464Z,17.53
2022-09-26T09:46:13.529Z,17.58
2022-09-26T09:47:13.533Z,17.62
2022-09-26T09:48:13.565Z,17.47
2022-09-26T09:49:13.603Z,17.38
2022-09-26T09:50:13.638Z,17.42
2022-09-26T09:51:13.670Z,17.47
2022-09-26T09:52:13.705Z,17.39
2022-09-26T09:53:13.748Z,17.28
2022-09-26T09:54:13.832Z,17.35
2022-09-26T09:55:13.811Z,17.30
2022-09-26T09:56:13.848Z,17.32
2022-09-26T09:57:13.885Z,17.33
2022-09-26T09:58:13.917Z,17.46
2022-09-26T09:59:13.951Z,17.60
2022-09-26T10:00:13.985Z,17.66
2022-09-26T10:01:14.022Z,17.98
2022-09-26T10:02:14.067Z,18.11
2022-09-26T10:03:14.175Z,18.34
2022-09-26T10:04:14.288Z,18.41
2022-09-26T10:05:14.162Z,18.56
2022-09-26T10:06:44.238Z,18.65
2022-09-26T10:07:14.239Z,18.64
2022-09-26T10:08:14.268Z,18.59
2022-09-26T10:09:39.096Z,18.62
2022-09-26T10:10:14.338Z,18.59
2022-09-26T10:11:14.372Z,18.54
2022-09-26T10:12:14.409Z,18.46
2022-09-26T10:13:14.444Z,18.47
2022-09-26T10:14:14.603Z,18.36
2022-09-26T10:15:14.513Z,18.35
2022-09-26T10:16:14.614Z,18.31
2022-09-26T10:17:14.583Z,18.26
2022-09-26T10:18:27.740Z,18.25
2022-09-26T10:19:14.655Z,18.20
2022-09-26T10:20:14.758Z,18.10
2022-09-26T10:21:14.728Z,18.07
2022-09-26T10:22:14.759Z,17.98
2022-09-26T10:23:14.797Z,17.91
2022-09-26T10:24:14.945Z,17.89
2022-09-26T10:25:14.880Z,17.80
2022-09-26T10:26:14.901Z,17.68
2022-09-26T10:27:14.939Z,17.63
2022-09-26T10:28:14.972Z,17.60
2022-09-26T10:29:15.008Z,17.57
2022-09-26T10:30:15.096Z,17.62
2022-09-26T10:31:15.135Z,17.54
2022-09-26T10:32:15.113Z,17.36
2022-09-26T10:33:15.151Z,17.42
2022-09-26T10:34:15.356Z,17.38
2022-09-26T10:35:19.397Z,17.43
2022-09-26T10:36:15.259Z,17.43
2022-09-26T10:37:15.293Z,17.42
2022-09-26T10:38:15.325Z,17.43
2022-09-26T10:39:15.371Z,17.45
2022-09-26T10:40:15.612Z,17.49
2022-09-26T10:41:15.442Z,17.39
2022-09-26T10:42:15.465Z,17.22
2022-09-26T10:43:15.502Z,17.25
2022-09-26T10:44:15.727Z,17.25
2022-09-26T10:45:15.573Z,17.35
2022-09-26T10:46:15.682Z,17.15
2022-09-26T10:47:15.642Z,17.17
2022-09-26T10:48:15.681Z,17.17
2022-09-26T10:49:15.718Z,17.22
2022-09-26T10:50:15.747Z,17.18
2022-09-26T10:51:15.804Z,17.25
2022-09-26T10:52:18.639Z,17.18
2022-09-26T10:53:15.853Z,17.05
2022-09-26T10:54:16.057Z,17.10
2022-09-26T10:55:15.923Z,17.09
2022-09-26T10:56:15.963Z,17.02
2022-09-26T10:57:16.232Z,16.98
2022-09-26T10:58:16.028Z,16.96
2022-09-26T10:59:16.062Z,17.05
2022-09-26T11:00:16.097Z,16.87
2022-09-26T11:01:16.150Z,16.88
2022-09-26T11:02:16.166Z,16.91
2022-09-26T11:03:16.303Z,16.92
2022-09-26T11:04:16.336Z,16.88
2022-09-26T11:05:16.275Z,16.90
2022-09-26T11:06:20.523Z,16.91
2022-09-26T11:07:16.344Z,16.90
2022-09-26T11:08:16.376Z,16.95
2022-09-26T11:09:16.413Z,16.95
2022-09-26T11:10:16.455Z,16.92
2022-09-26T11:11:16.484Z,16.98
2022-09-26T11:12:16.522Z,17.02
2022-09-26T11:13:16.591Z,16.98
2022-09-26T11:14:16.588Z,16.92
2022-09-26T11:15:16.620Z,16.88
2022-09-26T11:16:16.723Z,16.88
2022-09-26T11:17:16.691Z,16.91
2022-09-26T11:18:16.726Z,16.87
2022-09-26T11:19:16.759Z,16.75
2022-09-26T11:20:16.796Z,16.87
2022-09-26T11:21:28.367Z,16.82
2022-09-26T11:22:16.866Z,16.84
2022-09-26T11:23:16.898Z,16.90
2022-09-26T11:24:16.937Z,16.87
2022-09-26T11:25:16.970Z,16.87
2022-09-26T11:26:17.016Z,16.72
2022-09-26T11:27:17.046Z,16.81
2022-09-26T11:28:17.074Z,16.78
2022-09-26T11:29:17.337Z,16.87
2022-09-26T11:30:17.144Z,16.85
2022-09-26T11:31:17.213Z,16.80
2022-09-26T11:32:17.217Z,16.88
2022-09-26T11:33:17.246Z,16.95
2022-09-26T11:34:17.283Z,17.00
2022-09-26T11:35:17.320Z,17.05
2022-09-26T11:36:17.442Z,17.10
2022-09-26T11:37:17.459Z,17.24
2022-09-26T11:38:18.252Z,17.18
2022-09-26T11:39:18.757Z,17.21
2022-09-26T11:40:17.655Z,17.22
2022-09-26T11:41:18.256Z,17.40
2022-09-26T11:42:17.596Z,17.49
2022-09-26T11:43:17.694Z,17.63
2022-09-26T11:44:17.714Z,17.73
2022-09-26T11:45:17.722Z,17.77
2022-09-26T11:46:18.377Z,17.86
2022-09-26T11:47:19.255Z,17.81
2022-09-26T11:48:18.767Z,17.84
2022-09-26T11:49:18.757Z,17.80
2022-09-26T11:50:18.768Z,17.84
2022-09-26T11:51:17.961Z,17.71
2022-09-26T11:52:18.760Z,17.62
2022-09-26T11:53:25.155Z,17.65
2022-09-26T11:55:11.112Z,17.57
2022-09-26T11:56:11.143Z,17.62
2022-09-26T11:58:04.315Z,17.58
2022-09-26T11:59:04.338Z,17.58
2022-09-26T12:00:57.580Z,17.38
2022-09-26T12:01:57.583Z,17.38
2022-09-26T12:03:50.847Z,17.33
2022-09-26T12:04:50.785Z,17.40
2022-09-26T12:06:43.957Z,17.40
2022-09-26T12:07:43.987Z,17.54
2022-09-26T12:09:48.052Z,17.80
2022-09-26T12:10:48.078Z,17.91
2022-09-26T12:12:52.132Z,17.96
2022-09-26T12:13:52.159Z,18.21
2022-09-26T12:15:45.211Z,18.50
2022-09-26T12:16:45.181Z,18.56
2022-09-26T12:18:38.351Z,18.71
2022-09-26T12:19:38.381Z,18.87
2022-09-26T12:21:31.551Z,18.99
2022-09-26T12:22:31.579Z,19.12
2022-09-26T12:24:24.785Z,19.43
2022-09-26T12:25:24.789Z,19.46
2022-09-26T12:27:17.935Z,19.28
2022-09-26T12:28:17.970Z,19.17
2022-09-26T12:30:11.144Z,19.05
2022-09-26T12:31:12.508Z,18.89
2022-09-26T12:33:04.360Z,18.78
2022-09-26T12:34:04.376Z,18.82
2022-09-26T12:35:57.352Z,18.71
2022-09-26T12:36:57.384Z,18.26
2022-09-26T12:38:55.772Z,18.25
2022-09-26T12:39:50.577Z,18.13
2022-09-26T12:41:54.671Z,18.11
2022-09-26T12:42:54.689Z,17.95
2022-09-26T12:44:47.687Z,17.98
2022-09-26T12:45:52.474Z,17.96
2022-09-26T12:47:51.782Z,17.86
2022-09-26T12:48:51.833Z,17.86
2022-09-26T12:50:44.979Z,17.86
2022-09-26T12:51:45.010Z,17.83
2022-09-26T12:53:38.177Z,17.76
2022-09-26T12:54:38.208Z,17.77
2022-09-26T12:56:31.368Z,17.68
2022-09-26T12:57:31.398Z,17.71
2022-09-26T12:59:24.600Z,17.66
2022-09-26T13:00:24.596Z,17.66
2022-09-26T13:02:17.633Z,17.46
2022-09-26T13:03:17.694Z,17.46
2022-09-26T13:05:10.779Z,17.47
2022-09-26T13:06:10.805Z,17.54
2022-09-26T13:08:03.971Z,17.49
2022-09-26T13:09:04.002Z,17.51
2022-09-26T13:10:57.203Z,17.53
2022-09-26T13:11:57.195Z,17.36
2022-09-26T13:13:50.358Z,17.32
2022-09-26T13:14:50.386Z,17.24
2022-09-26T13:16:43.551Z,17.22
2022-09-26T13:17:43.575Z,17.24
2022-09-26T13:19:36.739Z,17.22
2022-09-26T13:20:36.773Z,17.17
2022-09-26T13:22:40.886Z,17.27
2022-09-26T13:23:40.878Z,17.21
2022-09-26T13:25:33.859Z,17.28